METAR AND TAF INFORMATION
METAR FOR KFXE
KFXE 260253Z 00000KT 10SM CLR 16/09 A3018 RMK AO2 SLP221 T01560089 51009
KFXE 260153Z 00000KT 10SM CLR 17/09 A3017 RMK AO2 SLP219 T01670089
KFXE 260053Z 00000KT 10SM CLR 18/08 A3016 RMK AO2 SLP216 T01780078
KFXE 260306Z 2603/2624 VRB04KT P6SM SKC
FM261500 09008KT P6SM FEW035 FEW050

 AIRPORT MAP

 RUNWAY INFORMATION
Runway 08 Runway length 6001 ft Runway width 100 ft
Runway elevation 12 ft Runway displaced threshold 0 ft Runway heading 84
Runway 26 Runway length 6001 ft Runway width 100 ft
Runway elevation 12 ft Runway displaced threshold 0 ft Runway heading 264
Runway 13 Runway length 4000 ft Runway width 100 ft
Runway elevation 12 ft Runway displaced threshold 0 ft Runway heading 129
Runway 31 Runway length 4000 ft Runway width 100 ft
Runway elevation 12 ft Runway displaced threshold 0 ft Runway heading 309

 AIRPORT FREQUENCIES
Type A/D Name MIAMI APP/ Frequency 119.7 MHZ
Type ATIS Name ATIS Frequency 119.85 MHZ
Type CLD Name CLNC DEL Frequency 127.95 MHZ
Type GND Name EXECUTIVE Frequency 121.75 MHZ
Type TWR Name EXECUTIVE Frequency 120.9 MHZ
Type UNIC Name UNICOM Frequency 122.95 MHZ

 AIRPORT NEAR NAVIGATION AIDS

-